Time;durP1;ratioP1;P1;durP2;ratioP2;P2;SDS_P1;SDS_P2;PMS_P1;PMS_P2;Temp;Humidity;BMP_temperature;BMP_pressure;BME280_temperature;BME280_humidity;BME280_pressure;Samples;Min_cycle;Max_cycle;Signal;HPM_P1;HPM_P2
2021/03/26 00:01:40;;;;;;;10.68;3.50;;;;;;;;;;4981535;28;20022;-72
2021/03/26 00:04:07;;;;;;;7.10;2.90;;;;;;;;;;4982133;28;20066;-71
2021/03/26 00:06:36;;;;;;;20.48;4.13;;;;;;;;;;4980954;28;20038;-71
2021/03/26 00:09:05;;;;;;;8.18;3.20;;;;;;;;;;4982773;28;20125;-70
2021/03/26 00:11:31;;;;;;;11.18;4.75;;;;;;;;;;4981277;28;20022;-73
2021/03/26 00:13:57;;;;;;;10.00;3.30;;;;;;;;;;4979697;28;20015;-71
2021/03/26 00:16:24;;;;;;;9.20;3.15;;;;;;;;;;4984668;28;20034;-70
2021/03/26 00:18:50;;;;;;;15.13;3.70;;;;;;;;;;4983378;28;20026;-70
2021/03/26 00:21:16;;;;;;;14.57;3.90;;;;;;;;;;4983682;28;20015;-70
2021/03/26 00:23:43;;;;;;;10.07;3.90;;;;;;;;;;4984318;28;20058;-71
2021/03/26 00:26:09;;;;;;;9.65;3.95;;;;;;;;;;4985546;28;20097;-70
2021/03/26 00:28:35;;;;;;;11.63;4.05;;;;;;;;;;4980179;28;20023;-71
2021/03/26 00:31:01;;;;;;;11.05;4.28;;;;;;;;;;4984490;28;20034;-71
2021/03/26 00:33:27;;;;;;;14.45;3.88;;;;;;;;;;4982779;28;20033;-70
2021/03/26 00:35:54;;;;;;;13.02;3.65;;;;;;;;;;4985615;28;20027;-70
2021/03/26 00:38:21;;;;;;;13.02;4.78;;;;;;;;;;4981377;28;20045;-70
2021/03/26 00:40:48;;;;;;;14.23;4.45;;;;;;;;;;4978907;28;20461;-71
2021/03/26 00:43:14;;;;;;;14.13;4.53;;;;;;;;;;4978265;28;20027;-71
2021/03/26 00:45:40;;;;;;;13.35;4.28;;;;;;;;;;4988840;28;20052;-71
2021/03/26 00:48:06;;;;;;;12.70;4.70;;;;;;;;;;4989667;28;20030;-71
2021/03/26 00:50:35;;;;;;;13.90;4.25;;;;;;;;;;4984070;28;20027;-71
2021/03/26 00:53:02;;;;;;;13.18;4.90;;;;;;;;;;4982271;28;20031;-71
2021/03/26 00:55:28;;;;;;;10.43;4.43;;;;;;;;;;4987695;28;20047;-71
2021/03/26 00:57:54;;;;;;;11.25;4.50;;;;;;;;;;4982076;28;20030;-71
2021/03/26 01:00:22;;;;;;;14.27;5.20;;;;;;;;;;4979206;28;20046;-71
2021/03/26 01:02:48;;;;;;;13.60;5.15;;;;;;;;;;4980515;28;20034;-71
2021/03/26 01:05:18;;;;;;;14.13;5.65;;;;;;;;;;4988676;28;20034;-71
2021/03/26 01:07:45;;;;;;;13.52;4.93;;;;;;;;;;4977278;28;20042;-70
2021/03/26 01:10:13;;;;;;;13.82;4.97;;;;;;;;;;4974445;28;20039;-71
2021/03/26 01:12:39;;;;;;;14.65;4.70;;;;;;;;;;4981146;28;20182;-70
2021/03/26 01:15:07;;;;;;;18.85;5.60;;;;;;;;;;4988371;28;20037;-71
2021/03/26 01:17:33;;;;;;;13.27;4.43;;;;;;;;;;4986635;28;20558;-71
2021/03/26 01:19:59;;;;;;;15.00;5.10;;;;;;;;;;4985007;28;20045;-72
2021/03/26 01:22:25;;;;;;;15.02;5.30;;;;;;;;;;4976958;28;20084;-70
2021/03/26 01:24:51;;;;;;;14.15;5.35;;;;;;;;;;4985875;28;20041;-71
2021/03/26 01:27:17;;;;;;;13.23;5.18;;;;;;;;;;4988952;28;20038;-71
2021/03/26 01:29:43;;;;;;;14.93;5.03;;;;;;;;;;4982437;28;20030;-71
2021/03/26 01:32:09;;;;;;;13.82;4.97;;;;;;;;;;4978582;28;20014;-72
2021/03/26 01:34:35;;;;;;;16.35;4.65;;;;;;;;;;4984193;28;20030;-72
2021/03/26 01:37:02;;;;;;;9.18;3.75;;;;;;;;;;4975521;28;20030;-72
2021/03/26 01:39:28;;;;;;;11.00;4.45;;;;;;;;;;4978581;28;20102;-73
2021/03/26 01:41:54;;;;;;;12.98;5.05;;;;;;;;;;4987247;28;20034;-72
2021/03/26 01:44:23;;;;;;;14.57;5.07;;;;;;;;;;4978567;28;20034;-72
2021/03/26 01:46:49;;;;;;;12.65;4.78;;;;;;;;;;4978389;28;20039;-73
2021/03/26 01:49:15;;;;;;;12.55;5.95;;;;;;;;;;4982156;28;20027;-72
2021/03/26 01:51:46;;;;;;;13.75;5.47;;;;;;;;;;4981508;28;20031;-72
2021/03/26 01:54:15;;;;;;;10.00;4.35;;;;;;;;;;4975510;28;20047;-72
2021/03/26 01:56:41;;;;;;;12.38;5.20;;;;;;;;;;4985408;28;20030;-72
2021/03/26 01:59:07;;;;;;;12.35;4.72;;;;;;;;;;4980820;28;20496;-74
2021/03/26 02:01:40;;;;;;;10.40;4.18;;;;;;;;;;4979709;28;20078;-74
2021/03/26 02:04:07;;;;;;;14.18;5.25;;;;;;;;;;4980213;28;20037;-72
2021/03/26 02:06:36;;;;;;;15.88;4.72;;;;;;;;;;4978454;28;20041;-73
2021/03/26 02:09:19;;;;;;;13.82;5.70;;;;;;;;;;4985354;28;20027;-72
2021/03/26 02:12:08;;;;;;;17.00;6.25;;;;;;;;;;4980350;28;20057;-73
2021/03/26 02:14:40;;;;;;;17.70;5.45;;;;;;;;;;4971653;28;20038;-71
2021/03/26 02:17:07;;;;;;;11.60;4.43;;;;;;;;;;4977007;28;20023;-72
2021/03/26 02:19:38;;;;;;;14.98;5.15;;;;;;;;;;4978541;28;20030;-73
2021/03/26 02:22:04;;;;;;;24.13;5.97;;;;;;;;;;4976423;28;20030;-72
2021/03/26 02:24:31;;;;;;;19.35;5.75;;;;;;;;;;4981145;28;20104;-72
2021/03/26 02:27:11;;;;;;;20.55;7.68;;;;;;;;;;4975917;28;20066;-73
2021/03/26 02:29:38;;;;;;;16.40;5.75;;;;;;;;;;4978744;28;20034;-72
2021/03/26 02:32:22;;;;;;;17.17;6.50;;;;;;;;;;4983898;28;20109;-73
2021/03/26 02:35:24;;;;;;;15.07;5.28;;;;;;;;;;4982646;28;20027;-71
2021/03/26 02:37:58;;;;;;;11.10;4.72;;;;;;;;;;4927891;29;20035;-72
2021/03/26 02:40:25;;;;;;;14.25;6.32;;;;;;;;;;4970434;28;20070;-72
2021/03/26 02:42:54;;;;;;;13.82;5.63;;;;;;;;;;4979968;28;20030;-72
2021/03/26 02:45:27;;;;;;;17.60;6.45;;;;;;;;;;4981254;28;20054;-72
2021/03/26 02:47:58;;;;;;;14.00;6.05;;;;;;;;;;4978871;28;20496;-73
2021/03/26 02:50:28;;;;;;;14.88;5.40;;;;;;;;;;4986745;28;20022;-73
2021/03/26 02:53:07;;;;;;;14.25;5.07;;;;;;;;;;4980015;28;20034;-72
2021/03/26 02:55:39;;;;;;;17.30;6.30;;;;;;;;;;4975417;28;20097;-74
2021/03/26 02:58:11;;;;;;;14.55;6.13;;;;;;;;;;4978557;28;20026;-71
2021/03/26 03:00:41;;;;;;;14.75;5.55;;;;;;;;;;4980943;28;20038;-71
2021/03/26 03:03:08;;;;;;;10.65;5.47;;;;;;;;;;4984194;28;20089;-71
2021/03/26 03:05:40;;;;;;;17.48;6.30;;;;;;;;;;4979053;28;20038;-72
2021/03/26 03:08:17;;;;;;;16.63;5.93;;;;;;;;;;4976211;28;20022;-72
2021/03/26 03:10:45;;;;;;;17.50;6.28;;;;;;;;;;4986855;28;20121;-72
2021/03/26 03:13:17;;;;;;;10.30;4.90;;;;;;;;;;4983096;28;20019;-72
2021/03/26 03:15:55;;;;;;;11.98;5.25;;;;;;;;;;4981718;28;20023;-72
2021/03/26 03:18:24;;;;;;;12.15;6.57;;;;;;;;;;4979361;28;20480;-72
2021/03/26 03:21:04;;;;;;;10.38;5.00;;;;;;;;;;4980171;28;20026;-72
2021/03/26 03:23:40;;;;;;;12.00;5.50;;;;;;;;;;4984946;28;20500;-72
2021/03/26 03:26:21;;;;;;;12.13;5.47;;;;;;;;;;4975805;28;20026;-72
2021/03/26 03:28:47;;;;;;;14.38;5.65;;;;;;;;;;4977139;28;20026;-72
2021/03/26 03:31:24;;;;;;;12.93;5.20;;;;;;;;;;4982059;28;20049;-72
2021/03/26 03:34:05;;;;;;;16.00;5.55;;;;;;;;;;4985597;28;20015;-72
2021/03/26 03:36:37;;;;;;;12.37;4.47;;;;;;;;;;4985942;28;20053;-72
2021/03/26 03:39:12;;;;;;;13.82;6.30;;;;;;;;;;4989906;28;20034;-73
2021/03/26 03:41:51;;;;;;;16.08;6.18;;;;;;;;;;4987770;28;20034;-72
2021/03/26 03:44:17;;;;;;;14.43;5.50;;;;;;;;;;4988194;28;20030;-73
2021/03/26 03:46:52;;;;;;;16.33;5.82;;;;;;;;;;4986373;28;20030;-73
2021/03/26 03:49:18;;;;;;;22.38;5.78;;;;;;;;;;4990508;28;20045;-73
2021/03/26 03:52:07;;;;;;;20.52;6.15;;;;;;;;;;4980842;28;20019;-73
2021/03/26 03:54:42;;;;;;;18.45;6.13;;;;;;;;;;4982856;28;20139;-73
2021/03/26 03:57:11;;;;;;;17.63;5.80;;;;;;;;;;4983605;28;20113;-71
2021/03/26 03:59:49;;;;;;;15.48;6.32;;;;;;;;;;4984531;28;20031;-72
2021/03/26 04:02:20;;;;;;;17.35;7.18;;;;;;;;;;4979982;28;20039;-73
2021/03/26 04:04:48;;;;;;;11.70;6.00;;;;;;;;;;4987287;28;20569;-73
2021/03/26 04:07:17;;;;;;;14.18;6.82;;;;;;;;;;4984162;28;20114;-73
2021/03/26 04:09:48;;;;;;;18.83;6.90;;;;;;;;;;4988413;28;20026;-72
2021/03/26 04:12:21;;;;;;;12.43;6.07;;;;;;;;;;4985425;28;20033;-73
2021/03/26 04:14:50;;;;;;;12.30;5.65;;;;;;;;;;4981216;28;20037;-72
2021/03/26 04:17:19;;;;;;;16.77;6.82;;;;;;;;;;4985129;28;20102;-72
2021/03/26 04:19:47;;;;;;;14.63;6.25;;;;;;;;;;4982375;28;20041;-72
2021/03/26 04:22:17;;;;;;;17.60;6.70;;;;;;;;;;4979284;28;20027;-72
2021/03/26 04:24:48;;;;;;;16.88;6.47;;;;;;;;;;4980386;28;20536;-73
2021/03/26 04:27:24;;;;;;;16.97;6.50;;;;;;;;;;4986018;28;20038;-71
2021/03/26 04:30:00;;;;;;;20.77;6.35;;;;;;;;;;4982632;28;20058;-72
2021/03/26 04:32:26;;;;;;;16.88;5.68;;;;;;;;;;4987025;28;20038;-72
2021/03/26 04:34:53;;;;;;;15.10;6.78;;;;;;;;;;4988007;28;20034;-72
2021/03/26 04:37:25;;;;;;;21.30;6.63;;;;;;;;;;4984394;28;20161;-72
2021/03/26 04:40:05;;;;;;;13.23;6.22;;;;;;;;;;4980682;28;20043;-71
2021/03/26 04:42:50;;;;;;;16.60;6.85;;;;;;;;;;4979492;28;20034;-73
2021/03/26 04:45:16;;;;;;;16.38;6.82;;;;;;;;;;4978290;28;20023;-72
2021/03/26 04:47:53;;;;;;;19.10;7.70;;;;;;;;;;4982148;28;20031;-74
2021/03/26 04:50:30;;;;;;;17.38;7.43;;;;;;;;;;4978663;28;20046;-73
2021/03/26 04:53:02;;;;;;;19.48;7.13;;;;;;;;;;4985597;28;20069;-72
2021/03/26 04:55:31;;;;;;;18.70;6.50;;;;;;;;;;4988570;28;20089;-74
2021/03/26 04:58:02;;;;;;;16.17;6.60;;;;;;;;;;4984990;28;20100;-72
2021/03/26 05:00:34;;;;;;;18.77;6.82;;;;;;;;;;4983666;28;20031;-72
2021/03/26 05:03:10;;;;;;;21.90;6.80;;;;;;;;;;4981631;28;20027;-73
2021/03/26 05:05:38;;;;;;;18.48;7.63;;;;;;;;;;4986359;28;20022;-72
2021/03/26 05:08:06;;;;;;;20.23;7.13;;;;;;;;;;4987970;28;20073;-72
2021/03/26 05:10:33;;;;;;;15.93;6.20;;;;;;;;;;4977644;28;20026;-71
2021/03/26 05:13:05;;;;;;;13.68;6.60;;;;;;;;;;4984404;28;20027;-72
2021/03/26 05:15:31;;;;;;;;;;;;;;;;;;4984962;28;20132;-74
2021/03/26 05:18:05;;;;;;;17.80;8.35;;;;;;;;;;4983945;28;20072;-73
2021/03/26 05:20:34;;;;;;;14.55;6.68;;;;;;;;;;4979872;28;20034;-71
2021/03/26 05:23:00;;;;;;;12.10;5.18;;;;;;;;;;4986564;28;20023;-72
2021/03/26 05:25:39;;;;;;;11.32;4.00;;;;;;;;;;4980785;28;20029;-72
2021/03/26 05:28:07;;;;;;;20.50;6.82;;;;;;;;;;4977626;28;20042;-72
2021/03/26 05:30:39;;;;;;;22.63;7.20;;;;;;;;;;4980146;28;20027;-71
2021/03/26 05:33:10;;;;;;;17.98;6.80;;;;;;;;;;4979896;28;20030;-72
2021/03/26 05:36:02;;;;;;;19.90;7.82;;;;;;;;;;4983788;28;20035;-73
2021/03/26 05:38:32;;;;;;;16.88;8.27;;;;;;;;;;4976309;28;20054;-73
2021/03/26 05:40:58;;;;;;;16.38;6.28;;;;;;;;;;4982252;28;20048;-73
2021/03/26 05:43:24;;;;;;;17.38;7.35;;;;;;;;;;4982799;28;20045;-71
2021/03/26 05:46:07;;;;;;;15.45;6.78;;;;;;;;;;4986486;28;20489;-72
2021/03/26 05:48:36;;;;;;;15.13;8.45;;;;;;;;;;4984025;28;20114;-73
2021/03/26 05:51:14;;;;;;;18.65;6.43;;;;;;;;;;4981876;28;20033;-76
2021/03/26 05:54:01;;;;;;;19.35;8.82;;;;;;;;;;4979148;28;20038;-72
2021/03/26 05:56:51;;;;;;;12.70;5.13;;;;;;;;;;4998843;28;20120;-72
2021/03/26 05:59:31;;;;;;;15.85;6.57;;;;;;;;;;4981067;28;20038;-77
2021/03/26 06:02:06;;;;;;;20.60;8.05;;;;;;;;;;4979944;28;20408;-74
2021/03/26 06:04:32;;;;;;;14.95;6.97;;;;;;;;;;4985274;28;20037;-72
2021/03/26 06:07:14;;;;;;;14.48;8.40;;;;;;;;;;4984711;28;20030;-72
2021/03/26 06:09:59;;;;;;;19.15;9.32;;;;;;;;;;4983664;28;20166;-72
2021/03/26 06:12:41;;;;;;;15.00;7.40;;;;;;;;;;4978251;28;20037;-72
2021/03/26 06:15:16;;;;;;;22.60;8.65;;;;;;;;;;4985007;28;20019;-71
2021/03/26 06:18:02;;;;;;;15.65;8.35;;;;;;;;;;4979858;28;20029;-71
2021/03/26 06:20:28;;;;;;;22.17;9.32;;;;;;;;;;4979427;28;20429;-72
2021/03/26 06:23:00;;;;;;;20.55;9.27;;;;;;;;;;4978425;28;20018;-73
2021/03/26 06:25:41;;;;;;;20.58;8.75;;;;;;;;;;4982399;28;20039;-74
2021/03/26 06:28:27;;;;;;;18.30;8.43;;;;;;;;;;4982993;28;20050;-75
2021/03/26 06:31:01;;;;;;;18.67;8.57;;;;;;;;;;4956965;28;20065;-73
2021/03/26 06:33:51;;;;;;;20.10;8.93;;;;;;;;;;4983690;28;20026;-73
2021/03/26 06:36:17;;;;;;;19.58;7.85;;;;;;;;;;4980053;28;20042;-74
2021/03/26 06:39:03;;;;;;;20.20;8.02;;;;;;;;;;4984109;28;20045;-73
2021/03/26 06:41:45;;;;;;;24.27;9.60;;;;;;;;;;4987210;28;20063;-74
2021/03/26 06:44:11;;;;;;;19.98;9.52;;;;;;;;;;4999818;28;20044;-72
2021/03/26 06:46:56;;;;;;;14.27;6.43;;;;;;;;;;4986914;28;20027;-76
2021/03/26 06:49:46;;;;;;;23.70;10.48;;;;;;;;;;4985602;28;20520;-73
2021/03/26 06:52:31;;;;;;;14.90;7.18;;;;;;;;;;4988259;28;20489;-71
2021/03/26 06:55:17;;;;;;;16.95;8.48;;;;;;;;;;4989346;28;20635;-72
2021/03/26 06:57:54;;;;;;;18.85;10.35;;;;;;;;;;4979231;28;20023;-72
2021/03/26 07:00:59;;;;;;;24.30;11.35;;;;;;;;;;4979755;28;20031;-72
2021/03/26 07:03:37;;;;;;;19.92;11.52;;;;;;;;;;4896076;29;20032;-73
2021/03/26 07:06:21;;;;;;;23.67;10.68;;;;;;;;;;4904972;29;20360;-71
2021/03/26 07:09:06;;;;;;;25.33;11.82;;;;;;;;;;4957965;28;20523;-73
2021/03/26 07:11:38;;;;;;;20.08;8.85;;;;;;;;;;4991779;28;20120;-76
2021/03/26 07:14:04;;;;;;;;;;;;;;;;;;4981715;28;20034;-75
2021/03/26 07:16:42;;;;;;;23.85;9.88;;;;;;;;;;4990148;28;20008;-73
2021/03/26 07:19:26;;;;;;;27.15;9.73;;;;;;;;;;4981545;28;20041;-72
2021/03/26 07:22:06;;;;;;;19.63;9.20;;;;;;;;;;4983018;28;20108;-74
2021/03/26 07:24:35;;;;;;;16.73;7.40;;;;;;;;;;4986648;28;20034;-73
2021/03/26 07:27:21;;;;;;;12.55;5.97;;;;;;;;;;4985351;28;20530;-73
2021/03/26 07:29:59;;;;;;;21.42;9.85;;;;;;;;;;4985050;28;20637;-72
2021/03/26 07:32:29;;;;;;;12.60;5.50;;;;;;;;;;4984856;28;20023;-74
2021/03/26 07:35:07;;;;;;;17.60;10.25;;;;;;;;;;4981167;28;20154;-72
2021/03/26 07:37:47;;;;;;;12.88;6.18;;;;;;;;;;4986072;28;20018;-73
2021/03/26 07:40:22;;;;;;;16.80;7.40;;;;;;;;;;4984953;28;20110;-73
2021/03/26 07:43:03;;;;;;;14.50;6.90;;;;;;;;;;4989248;28;20042;-75
2021/03/26 07:45:29;;;;;;;13.07;5.13;;;;;;;;;;4983178;28;20147;-72
2021/03/26 07:47:55;;;;;;;21.15;6.55;;;;;;;;;;4983567;28;20066;-74
2021/03/26 07:50:26;;;;;;;21.17;9.02;;;;;;;;;;4980749;28;20441;-75
2021/03/26 07:53:00;;;;;;;14.75;6.20;;;;;;;;;;4988163;28;20065;-74
2021/03/26 07:55:29;;;;;;;11.13;4.53;;;;;;;;;;4978302;28;20174;-75
2021/03/26 07:58:14;;;;;;;13.60;5.47;;;;;;;;;;4982751;28;20583;-72
2021/03/26 08:00:55;;;;;;;19.85;9.20;;;;;;;;;;4982210;28;20035;-72
2021/03/26 08:03:57;;;;;;;12.70;6.90;;;;;;;;;;4982722;28;20045;-73
2021/03/26 08:06:23;;;;;;;15.00;6.80;;;;;;;;;;4926005;29;20821;-75
2021/03/26 08:09:07;;;;;;;16.65;7.88;;;;;;;;;;4974121;28;20038;-74
2021/03/26 08:11:42;;;;;;;17.98;7.78;;;;;;;;;;4978151;28;20085;-74
2021/03/26 08:14:12;;;;;;;13.48;5.95;;;;;;;;;;4980344;28;20509;-74
2021/03/26 08:16:41;;;;;;;12.90;5.63;;;;;;;;;;4982054;28;20161;-74
2021/03/26 08:19:13;;;;;;;14.88;6.97;;;;;;;;;;4979640;28;20146;-77
2021/03/26 08:21:45;;;;;;;8.27;5.15;;;;;;;;;;4981265;28;20037;-74
2021/03/26 08:24:29;;;;;;;19.75;7.68;;;;;;;;;;4979902;28;20033;-72
2021/03/26 08:26:58;;;;;;;14.63;7.15;;;;;;;;;;4981032;28;20539;-74
2021/03/26 08:29:31;;;;;;;13.35;5.30;;;;;;;;;;4979768;28;20031;-74
2021/03/26 08:32:16;;;;;;;19.02;7.70;;;;;;;;;;4983516;28;20061;-73
2021/03/26 08:34:42;;;;;;;16.55;7.63;;;;;;;;;;4981942;28;20386;-76
2021/03/26 08:37:24;;;;;;;10.30;4.13;;;;;;;;;;4977302;28;20392;-75
2021/03/26 08:39:50;;;;;;;;;;;;;;;;;;4980192;28;20030;-72
2021/03/26 08:42:36;;;;;;;14.30;7.10;;;;;;;;;;4982203;28;20198;-73
2021/03/26 08:45:25;;;;;;;11.10;5.28;;;;;;;;;;4980969;28;20053;-75
2021/03/26 08:47:53;;;;;;;14.30;5.43;;;;;;;;;;4969569;28;20061;-75
2021/03/26 08:50:27;;;;;;;16.90;8.23;;;;;;;;;;4981866;28;20057;-72
2021/03/26 08:53:01;;;;;;;14.40;6.10;;;;;;;;;;4981168;28;20034;-72
2021/03/26 08:55:41;;;;;;;18.45;7.50;;;;;;;;;;4980034;28;20046;-73
2021/03/26 08:58:07;;;;;;;10.65;4.90;;;;;;;;;;4979386;28;20025;-76
2021/03/26 09:00:52;;;;;;;13.35;5.70;;;;;;;;;;4982029;28;20035;-73
2021/03/26 09:03:26;;;;;;;14.27;7.20;;;;;;;;;;4984253;28;20030;-74
2021/03/26 09:06:11;;;;;;;13.73;5.03;;;;;;;;;;4989146;28;20496;-73
2021/03/26 09:08:49;;;;;;;16.38;7.68;;;;;;;;;;4987034;28;20026;-72
2021/03/26 09:11:15;;;;;;;12.60;5.63;;;;;;;;;;4976966;28;20050;-73
2021/03/26 09:14:00;;;;;;;18.85;6.55;;;;;;;;;;4979109;28;20045;-72
2021/03/26 09:16:31;;;;;;;16.15;7.05;;;;;;;;;;4975381;28;20114;-76
2021/03/26 09:18:57;;;;;;;13.65;6.20;;;;;;;;;;4980114;28;20030;-74
2021/03/26 09:21:26;;;;;;;12.35;4.40;;;;;;;;;;4976739;28;20042;-71
2021/03/26 09:24:09;;;;;;;14.15;5.82;;;;;;;;;;4975634;28;20463;-72
2021/03/26 09:26:56;;;;;;;15.48;7.20;;;;;;;;;;4973697;28;20085;-74
2021/03/26 09:29:29;;;;;;;18.95;6.88;;;;;;;;;;4978658;28;20572;-73
2021/03/26 09:32:00;;;;;;;10.23;4.50;;;;;;;;;;4976638;28;20072;-73
2021/03/26 09:34:33;;;;;;;17.35;5.60;;;;;;;;;;4979321;28;20026;-72
2021/03/26 09:37:07;;;;;;;16.15;7.10;;;;;;;;;;4971116;28;20027;-75
2021/03/26 09:39:34;;;;;;;11.43;4.65;;;;;;;;;;4975945;28;20026;-69
2021/03/26 09:42:09;;;;;;;10.35;5.43;;;;;;;;;;4976689;28;20034;-72
2021/03/26 09:44:47;;;;;;;11.98;5.55;;;;;;;;;;4976383;28;20050;-73
2021/03/26 09:47:13;;;;;;;9.65;5.13;;;;;;;;;;4976101;28;20057;-74
2021/03/26 09:49:41;;;;;;;18.45;6.55;;;;;;;;;;4990570;28;20046;-76
2021/03/26 09:52:07;;;;;;;10.48;5.00;;;;;;;;;;4976701;28;20038;-75
2021/03/26 09:54:39;;;;;;;12.30;4.72;;;;;;;;;;4974434;28;20042;-73
2021/03/26 09:57:16;;;;;;;10.77;3.47;;;;;;;;;;4975609;28;20321;-75
2021/03/26 09:59:55;;;;;;;13.02;4.65;;;;;;;;;;4976429;28;20296;-75
2021/03/26 10:02:27;;;;;;;19.90;4.75;;;;;;;;;;4977453;28;20034;-73
2021/03/26 10:04:59;;;;;;;5.70;2.83;;;;;;;;;;4974853;28;20031;-76
2021/03/26 10:07:29;;;;;;;;;;;;;;;;;;4970813;28;20030;-76
2021/03/26 10:10:43;;;;;;;13.05;5.53;;;;;;;;;;4975640;28;19975;-72
2021/03/26 10:12:48;;;;;;;16.63;4.70;;;;;;;;;;4975847;28;20065;-72
2021/03/26 10:15:33;;;;;;;12.25;4.00;;;;;;;;;;4991170;28;20665;-75
2021/03/26 10:18:08;;;;;;;6.97;3.33;;;;;;;;;;4972152;28;20030;-71
2021/03/26 10:20:44;;;;;;;10.40;3.75;;;;;;;;;;4976880;28;20485;-73
2021/03/26 10:23:30;;;;;;;8.95;4.43;;;;;;;;;;4974209;28;20029;-73
2021/03/26 10:25:56;;;;;;;14.68;3.75;;;;;;;;;;4992043;28;20504;-72
2021/03/26 10:28:25;;;;;;;8.75;3.40;;;;;;;;;;4975942;28;20046;-73
2021/03/26 10:30:53;;;;;;;13.30;3.35;;;;;;;;;;4976157;28;20030;-73
2021/03/26 10:33:20;;;;;;;7.70;3.53;;;;;;;;;;4973932;28;20050;-72
2021/03/26 10:36:02;;;;;;;13.65;3.38;;;;;;;;;;4975992;28;20035;-73
2021/03/26 10:38:39;;;;;;;12.77;3.53;;;;;;;;;;4971655;28;20023;-74
2021/03/26 10:41:15;;;;;;;11.32;3.42;;;;;;;;;;4978453;28;20070;-72
2021/03/26 10:43:49;;;;;;;11.05;4.10;;;;;;;;;;4977619;28;20085;-74
2021/03/26 10:46:25;;;;;;;9.95;3.17;;;;;;;;;;4976717;28;20112;-73
2021/03/26 10:48:58;;;;;;;6.97;2.83;;;;;;;;;;4973511;28;20030;-72
2021/03/26 10:51:43;;;;;;;7.38;3.08;;;;;;;;;;4973991;28;20092;-74
2021/03/26 10:54:38;;;;;;;14.93;2.92;;;;;;;;;;4974352;28;20113;-72
2021/03/26 10:57:04;;;;;;;7.75;2.78;;;;;;;;;;4957009;28;20042;-73
2021/03/26 10:59:33;;;;;;;9.13;2.88;;;;;;;;;;4973797;28;20079;-73
2021/03/26 11:02:18;;;;;;;10.20;3.10;;;;;;;;;;4974495;28;20031;-71
2021/03/26 11:04:46;;;;;;;11.15;3.50;;;;;;;;;;4971138;28;20129;-73
2021/03/26 11:07:16;;;;;;;8.00;3.10;;;;;;;;;;4971179;28;20026;-72
2021/03/26 11:09:45;;;;;;;11.43;2.72;;;;;;;;;;4974199;28;20207;-73
2021/03/26 11:12:14;;;;;;;6.45;2.00;;;;;;;;;;4971551;28;20539;-70
2021/03/26 11:14:55;;;;;;;11.40;2.92;;;;;;;;;;4975837;28;20529;-72
2021/03/26 11:17:28;;;;;;;6.63;2.40;;;;;;;;;;4972700;28;20037;-74
2021/03/26 11:20:09;;;;;;;11.07;2.85;;;;;;;;;;4975617;28;20026;-71
2021/03/26 11:22:38;;;;;;;13.48;3.80;;;;;;;;;;4974902;28;20030;-73
2021/03/26 11:25:06;;;;;;;7.07;2.17;;;;;;;;;;4978597;28;20034;-75
2021/03/26 11:27:39;;;;;;;7.82;3.13;;;;;;;;;;4969102;28;20035;-79
2021/03/26 11:30:11;;;;;;;9.63;2.67;;;;;;;;;;4970690;28;20520;-74
2021/03/26 11:32:38;;;;;;;6.70;2.60;;;;;;;;;;4972966;28;20027;-71
2021/03/26 11:35:09;;;;;;;7.20;2.55;;;;;;;;;;4978725;28;20469;-77
2021/03/26 11:37:42;;;;;;;6.53;2.63;;;;;;;;;;4975896;28;20038;-73
2021/03/26 11:40:14;;;;;;;11.50;3.00;;;;;;;;;;4979620;28;20077;-74
2021/03/26 11:42:40;;;;;;;;;;;;;;;;;;4979481;28;20062;-74
2021/03/26 11:45:25;;;;;;;7.28;2.45;;;;;;;;;;4977904;28;19968;-75
2021/03/26 11:48:17;;;;;;;5.47;2.03;;;;;;;;;;4976863;28;20093;-72
2021/03/26 11:51:00;;;;;;;5.18;1.95;;;;;;;;;;4952330;28;20242;-74
2021/03/26 11:53:32;;;;;;;6.20;2.33;;;;;;;;;;4977991;28;20022;-72
2021/03/26 11:56:04;;;;;;;6.85;2.67;;;;;;;;;;4977022;28;20046;-71
2021/03/26 11:58:35;;;;;;;5.15;2.38;;;;;;;;;;4977670;28;20027;-71
2021/03/26 12:01:08;;;;;;;5.65;2.72;;;;;;;;;;4979320;28;20304;-73
2021/03/26 12:03:34;;;;;;;14.10;2.95;;;;;;;;;;4974652;28;20022;-73
2021/03/26 12:06:18;;;;;;;10.40;2.88;;;;;;;;;;4978329;28;20026;-75
2021/03/26 12:08:47;;;;;;;9.30;4.07;;;;;;;;;;4974002;28;20069;-77
2021/03/26 12:11:16;;;;;;;6.38;1.70;;;;;;;;;;4977735;28;20031;-73
2021/03/26 12:13:51;;;;;;;9.93;2.90;;;;;;;;;;4976462;28;20037;-72
2021/03/26 12:16:17;;;;;;;7.95;2.92;;;;;;;;;;4976185;28;20061;-73
2021/03/26 12:18:43;;;;;;;8.82;2.80;;;;;;;;;;4974623;28;20109;-73
2021/03/26 12:21:24;;;;;;;11.38;3.47;;;;;;;;;;4977714;28;20030;-73
2021/03/26 12:23:53;;;;;;;4.07;2.20;;;;;;;;;;4991716;28;20030;-75
2021/03/26 12:26:22;;;;;;;6.68;2.65;;;;;;;;;;4995035;28;20098;-76
2021/03/26 12:28:54;;;;;;;7.00;3.05;;;;;;;;;;4974487;28;20053;-73
2021/03/26 12:31:20;;;;;;;3.30;1.50;;;;;;;;;;4974542;28;20034;-72
2021/03/26 12:33:55;;;;;;;5.15;1.50;;;;;;;;;;4976022;28;20122;-71
2021/03/26 12:36:40;;;;;;;7.63;1.63;;;;;;;;;;4979379;28;20034;-69
2021/03/26 12:39:09;;;;;;;10.82;1.83;;;;;;;;;;4970358;28;20030;-74
2021/03/26 12:41:52;;;;;;;6.35;1.75;;;;;;;;;;4978917;28;20538;-73
2021/03/26 12:44:21;;;;;;;8.63;1.77;;;;;;;;;;4976376;28;20047;-71
2021/03/26 12:46:58;;;;;;;5.05;2.30;;;;;;;;;;4975066;28;20027;-73
2021/03/26 12:49:28;;;;;;;7.78;1.63;;;;;;;;;;4977198;28;20040;-74
2021/03/26 12:51:58;;;;;;;5.20;2.00;;;;;;;;;;4977901;28;20058;-69
2021/03/26 12:54:31;;;;;;;8.27;2.50;;;;;;;;;;4977273;28;20157;-71
2021/03/26 12:57:15;;;;;;;10.57;2.50;;;;;;;;;;4973141;28;20038;-74
2021/03/26 12:59:43;;;;;;;5.32;2.03;;;;;;;;;;4973785;28;20061;-76
2021/03/26 13:02:16;;;;;;;6.55;2.22;;;;;;;;;;4977931;28;20124;-76
2021/03/26 13:04:55;;;;;;;7.05;2.53;;;;;;;;;;4972786;28;20026;-72
2021/03/26 13:07:24;;;;;;;6.40;3.00;;;;;;;;;;4975083;28;20233;-74
2021/03/26 13:09:55;;;;;;;3.63;1.70;;;;;;;;;;4975408;28;20089;-66
2021/03/26 13:12:26;;;;;;;8.65;2.17;;;;;;;;;;4979007;28;20031;-69
2021/03/26 13:14:59;;;;;;;10.05;3.22;;;;;;;;;;4974849;28;20050;-72
2021/03/26 13:17:30;;;;;;;8.40;2.85;;;;;;;;;;4975266;28;20169;-72
2021/03/26 13:20:23;;;;;;;10.45;3.38;;;;;;;;;;4977405;28;20468;-73
2021/03/26 13:22:52;;;;;;;7.22;3.15;;;;;;;;;;4972489;28;20027;-72
2021/03/26 13:25:31;;;;;;;11.05;2.78;;;;;;;;;;4977764;28;20038;-72
2021/03/26 13:27:57;;;;;;;7.75;2.90;;;;;;;;;;4974316;28;20082;-71
2021/03/26 13:30:26;;;;;;;12.38;3.55;;;;;;;;;;4979016;28;20038;-69
2021/03/26 13:33:11;;;;;;;6.45;2.40;;;;;;;;;;4978257;28;20038;-76
2021/03/26 13:35:52;;;;;;;13.57;3.45;;;;;;;;;;4979264;28;20026;-72
2021/03/26 13:38:18;;;;;;;8.63;2.10;;;;;;;;;;4974475;28;20074;-80
2021/03/26 13:40:46;;;;;;;8.95;2.20;;;;;;;;;;4979187;28;20473;-74
2021/03/26 13:43:29;;;;;;;11.85;2.78;;;;;;;;;;4977082;28;20023;-72
2021/03/26 13:46:04;;;;;;;7.97;2.92;;;;;;;;;;4980850;28;20036;-70
2021/03/26 13:48:37;;;;;;;5.45;2.53;;;;;;;;;;4974920;28;20041;-72
2021/03/26 13:51:05;;;;;;;13.43;4.00;;;;;;;;;;4978841;28;20045;-73
2021/03/26 13:53:35;;;;;;;9.00;3.97;;;;;;;;;;4973629;28;20117;-70
2021/03/26 13:56:07;;;;;;;10.90;3.22;;;;;;;;;;4977095;28;20050;-71
2021/03/26 13:58:40;;;;;;;7.57;2.58;;;;;;;;;;4977819;28;20069;-73
2021/03/26 14:01:08;;;;;;;12.75;3.75;;;;;;;;;;4978193;28;20042;-74
2021/03/26 14:03:34;;;;;;;8.77;3.67;;;;;;;;;;4991111;28;20436;-72
2021/03/26 14:06:09;;;;;;;13.57;2.72;;;;;;;;;;4990227;28;20134;-75
2021/03/26 14:08:44;;;;;;;6.97;2.80;;;;;;;;;;4973750;28;20045;-72
2021/03/26 14:11:26;;;;;;;10.82;3.72;;;;;;;;;;4979666;28;20126;-72
2021/03/26 14:14:15;;;;;;;11.20;3.93;;;;;;;;;;4978975;28;20030;-74
2021/03/26 14:16:41;;;;;;;9.27;3.78;;;;;;;;;;4967991;28;20052;-72
2021/03/26 14:19:14;;;;;;;9.68;4.28;;;;;;;;;;4977654;28;20077;-74
2021/03/26 14:21:42;;;;;;;6.68;3.05;;;;;;;;;;4978203;28;20456;-74
2021/03/26 14:24:14;;;;;;;14.40;3.67;;;;;;;;;;4977939;28;20481;-72
2021/03/26 14:26:46;;;;;;;6.47;2.60;;;;;;;;;;4974259;28;20054;-73
2021/03/26 14:29:12;;;;;;;6.63;2.47;;;;;;;;;;4976800;28;20038;-68
2021/03/26 14:31:47;;;;;;;8.05;3.05;;;;;;;;;;4977933;28;20492;-73
2021/03/26 14:34:24;;;;;;;6.57;3.05;;;;;;;;;;4977108;28;20088;-74
2021/03/26 14:36:52;;;;;;;5.72;3.08;;;;;;;;;;4976856;28;20049;-76
2021/03/26 14:39:20;;;;;;;7.10;3.10;;;;;;;;;;4980125;28;20030;-73
2021/03/26 14:41:54;;;;;;;7.47;3.53;;;;;;;;;;4975853;28;20425;-72
2021/03/26 14:44:29;;;;;;;6.60;3.13;;;;;;;;;;4978068;28;20038;-70
2021/03/26 14:46:55;;;;;;;8.50;3.33;;;;;;;;;;4972964;28;20308;-74
2021/03/26 14:49:24;;;;;;;6.63;3.60;;;;;;;;;;4975217;28;20402;-74
2021/03/26 14:52:06;;;;;;;10.32;4.32;;;;;;;;;;4970574;28;20107;-75
2021/03/26 14:54:43;;;;;;;8.27;3.10;;;;;;;;;;4976744;28;20039;-73
2021/03/26 14:57:17;;;;;;;5.10;2.72;;;;;;;;;;4975380;28;20093;-73
2021/03/26 14:59:52;;;;;;;11.25;3.53;;;;;;;;;;4980638;28;20058;-74
2021/03/26 15:02:19;;;;;;;8.82;3.17;;;;;;;;;;4978312;28;20034;-74
2021/03/26 15:04:50;;;;;;;16.52;3.63;;;;;;;;;;4979102;28;20081;-76
2021/03/26 15:07:18;;;;;;;8.95;3.60;;;;;;;;;;4979546;28;20136;-75
2021/03/26 15:10:00;;;;;;;11.80;4.63;;;;;;;;;;4982477;28;20496;-76